Time;durP1;ratioP1;P1;durP2;ratioP2;P2;SDS_P1;SDS_P2;PMS_P1;PMS_P2;Temp;Humidity;BMP_temperature;BMP_pressure;BME280_temperature;BME280_humidity;BME280_pressure;Samples;Min_cycle;Max_cycle;Signal;HPM_P1;HPM_P2
2023/08/18 00:00:39;;;;;;;4.67;4.27;;;23.60;99.90;;;;;;4906900;29;20466;-47
2023/08/18 00:03:06;;;;;;;4.43;4.03;;;23.60;99.90;;;;;;4904846;29;20551;-47
2023/08/18 00:05:34;;;;;;;4.00;3.60;;;23.60;99.90;;;;;;4907108;29;20455;-48
2023/08/18 00:08:00;;;;;;;4.07;3.73;;;23.60;99.90;;;;;;4908499;29;20998;-47
2023/08/18 00:10:27;;;;;;;4.83;4.33;;;23.60;99.90;;;;;;4909764;29;21154;-46
2023/08/18 00:12:54;;;;;;;4.73;4.30;;;23.60;99.90;;;;;;4908920;29;20523;-47
2023/08/18 00:15:20;;;;;;;4.27;3.97;;;23.60;99.90;;;;;;4910056;29;20473;-52
2023/08/18 00:17:47;;;;;;;4.27;3.97;;;23.60;99.90;;;;;;4910899;29;20469;-51
2023/08/18 00:20:14;;;;;;;4.47;4.07;;;23.60;99.90;;;;;;4909323;29;20472;-48
2023/08/18 00:22:45;;;;;;;5.07;4.23;;;23.60;99.90;;;;;;4910299;29;20626;-47
2023/08/18 00:25:12;;;;;;;4.33;4.03;;;23.60;99.90;;;;;;4910495;29;20470;-47
2023/08/18 00:27:39;;;;;;;4.13;3.83;;;23.50;99.90;;;;;;4912076;29;20607;-47
2023/08/18 00:30:07;;;;;;;3.90;3.60;;;23.50;99.90;;;;;;4911191;29;20487;-46
2023/08/18 00:32:34;;;;;;;4.87;4.47;;;23.50;99.90;;;;;;4904171;29;20474;-48
2023/08/18 00:35:01;;;;;;;4.90;4.40;;;23.50;99.90;;;;;;4915225;29;20546;-50
2023/08/18 00:37:27;;;;;;;4.53;4.17;;;23.50;99.90;;;;;;4912534;29;20869;-51
2023/08/18 00:39:55;;;;;;;4.40;4.00;;;23.50;99.90;;;;;;4908772;29;20479;-48
2023/08/18 00:42:22;;;;;;;4.53;4.13;;;23.50;99.90;;;;;;4910559;29;20963;-47
2023/08/18 00:44:49;;;;;;;4.50;4.20;;;23.50;99.90;;;;;;4907932;29;20466;-49
2023/08/18 00:47:16;;;;;;;4.37;3.97;;;23.50;99.90;;;;;;4909181;29;20487;-47
2023/08/18 00:49:42;;;;;;;4.27;3.97;;;23.50;99.90;;;;;;4908186;29;20487;-52
2023/08/18 00:52:10;;;;;;;5.13;4.73;;;23.50;99.90;;;;;;4908776;29;21343;-51
2023/08/18 00:54:36;;;;;;;4.40;4.00;;;23.50;99.90;;;;;;4906971;29;20463;-51
2023/08/18 00:57:04;;;;;;;4.43;4.03;;;23.50;99.90;;;;;;4907789;29;20470;-46
2023/08/18 00:59:31;;;;;;;5.03;4.53;;;23.50;99.90;;;;;;4905222;29;20832;-49
2023/08/18 01:02:02;;;;;;;4.80;4.30;;;23.50;99.90;;;;;;4907733;29;20472;-46
2023/08/18 01:04:29;;;;;;;3.97;3.67;;;23.50;99.90;;;;;;4905132;29;20497;-51
2023/08/18 01:06:56;;;;;;;4.90;4.50;;;23.50;99.90;;;;;;4908362;29;20659;-48
2023/08/18 01:09:23;;;;;;;4.20;3.77;;;23.50;99.90;;;;;;4908827;29;20482;-48
2023/08/18 01:11:59;;;;;;;4.63;4.23;;;23.50;99.90;;;;;;4908406;29;20477;-47
2023/08/18 01:14:36;;;;;;;4.57;4.17;;;23.50;99.90;;;;;;4908202;29;20463;-47
2023/08/18 01:17:09;;;;;;;6.10;4.53;;;23.40;99.90;;;;;;4908260;29;21286;-49
2023/08/18 01:19:36;;;;;;;4.43;4.03;;;23.40;99.90;;;;;;4908475;29;20483;-47
2023/08/18 01:22:11;;;;;;;4.10;3.80;;;23.40;99.90;;;;;;4908032;29;20494;-50
2023/08/18 01:24:40;;;;;;;5.50;4.50;;;23.50;99.90;;;;;;4910692;29;20487;-51
2023/08/18 01:27:07;;;;;;;5.40;4.90;;;23.40;99.90;;;;;;4912188;29;20469;-52
2023/08/18 01:29:34;;;;;;;5.20;4.77;;;23.40;99.90;;;;;;4910723;29;20487;-49
2023/08/18 01:32:03;;;;;;;4.93;4.53;;;23.40;99.90;;;;;;4912852;29;20474;-50
2023/08/18 01:34:31;;;;;;;4.33;4.03;;;23.40;99.90;;;;;;4904174;29;20567;-50
2023/08/18 01:37:00;;;;;;;4.80;4.43;;;23.40;99.90;;;;;;4906207;29;20825;-52
2023/08/18 01:39:29;;;;;;;5.30;4.90;;;23.40;99.90;;;;;;4908128;29;20480;-49
2023/08/18 01:41:57;;;;;;;4.63;4.30;;;23.40;99.90;;;;;;4907302;29;20478;-47
2023/08/18 01:44:23;;;;;;;4.20;3.90;;;23.40;99.90;;;;;;4911818;29;20464;-49
2023/08/18 01:46:50;;;;;;;4.60;4.20;;;23.40;99.90;;;;;;4912324;29;20463;-48
2023/08/18 01:49:17;;;;;;;4.73;4.33;;;23.40;99.90;;;;;;4910912;29;20491;-47
2023/08/18 01:51:43;;;;;;;4.57;4.20;;;23.40;99.90;;;;;;4912308;29;20477;-47
2023/08/18 01:54:10;;;;;;;5.80;4.00;;;23.40;99.90;;;;;;4911811;29;20515;-48
2023/08/18 01:56:37;;;;;;;4.27;3.97;;;23.40;99.90;;;;;;4908477;29;21020;-46
2023/08/18 01:59:05;;;;;;;5.27;4.77;;;23.40;99.90;;;;;;4912537;29;20497;-52
2023/08/18 02:01:32;;;;;;;3.73;3.43;;;23.40;99.90;;;;;;4912267;29;20558;-47
2023/08/18 02:03:59;;;;;;;4.80;4.40;;;23.40;99.90;;;;;;4911241;29;20459;-47
2023/08/18 02:06:26;;;;;;;4.70;4.30;;;23.40;99.90;;;;;;4909913;29;20979;-48
2023/08/18 02:08:52;;;;;;;4.83;4.47;;;23.40;99.90;;;;;;4911472;29;20838;-50
2023/08/18 02:11:19;;;;;;;4.07;3.70;;;23.40;99.90;;;;;;4914366;29;20849;-49
2023/08/18 02:13:46;;;;;;;4.60;4.20;;;23.40;99.90;;;;;;4914579;29;20514;-47
2023/08/18 02:16:14;;;;;;;4.37;3.97;;;23.40;99.90;;;;;;4913904;29;21014;-50
2023/08/18 02:18:41;;;;;;;4.63;4.23;;;23.30;99.90;;;;;;4916181;29;20552;-50
2023/08/18 02:21:07;;;;;;;4.50;4.20;;;23.40;99.90;;;;;;4915690;29;20480;-50
2023/08/18 02:23:34;;;;;;;5.13;4.70;;;23.30;99.90;;;;;;4914821;29;20968;-48
2023/08/18 02:26:02;;;;;;;4.70;4.30;;;23.40;99.90;;;;;;4912737;29;20515;-48
2023/08/18 02:28:29;;;;;;;5.07;4.67;;;23.40;99.90;;;;;;4912041;29;20476;-46
2023/08/18 02:31:00;;;;;;;5.10;4.70;;;23.40;99.90;;;;;;4910093;29;20974;-48
2023/08/18 02:33:29;;;;;;;4.43;4.03;;;23.30;99.90;;;;;;4905358;29;20519;-48
2023/08/18 02:35:56;;;;;;;4.57;4.17;;;23.30;99.90;;;;;;4905924;29;20727;-48
2023/08/18 02:38:22;;;;;;;4.87;4.47;;;23.40;99.90;;;;;;4906193;29;20464;-47
2023/08/18 02:40:49;;;;;;;4.70;4.30;;;23.30;99.90;;;;;;4904103;29;20472;-47
2023/08/18 02:43:16;;;;;;;4.40;4.00;;;23.30;99.90;;;;;;4905738;29;20759;-48
2023/08/18 02:45:42;;;;;;;4.60;4.20;;;23.40;99.90;;;;;;4903706;29;20916;-48
2023/08/18 02:48:11;;;;;;;4.70;4.30;;;23.30;99.90;;;;;;4911796;29;20461;-47
2023/08/18 02:50:39;;;;;;;4.30;3.90;;;23.30;99.90;;;;;;4910124;29;20488;-47
2023/08/18 02:53:06;;;;;;;4.60;4.20;;;23.30;99.90;;;;;;4912470;29;20871;-52
2023/08/18 02:55:34;;;;;;;4.57;4.20;;;23.30;99.90;;;;;;4908051;29;20970;-46
2023/08/18 02:58:01;;;;;;;4.50;4.13;;;23.30;99.90;;;;;;4913340;29;20562;-47
2023/08/18 03:00:28;;;;;;;4.77;4.37;;;23.30;99.90;;;;;;4912932;29;20895;-47
2023/08/18 03:02:54;;;;;;;4.80;4.40;;;23.30;99.90;;;;;;4914456;29;20445;-47
2023/08/18 03:05:21;;;;;;;5.40;5.00;;;23.30;99.90;;;;;;4911253;29;20478;-49
2023/08/18 03:07:49;;;;;;;7.30;4.63;;;23.30;99.90;;;;;;4911886;29;20464;-47
2023/08/18 03:10:16;;;;;;;4.50;3.87;;;23.30;99.90;;;;;;4910973;29;20494;-48
2023/08/18 03:12:42;;;;;;;5.13;4.73;;;23.30;99.90;;;;;;4909408;29;20470;-47
2023/08/18 03:15:10;;;;;;;4.63;4.23;;;23.30;99.90;;;;;;4910282;29;21110;-47
2023/08/18 03:17:37;;;;;;;5.07;4.70;;;23.30;99.90;;;;;;4911132;29;20835;-49
2023/08/18 03:20:04;;;;;;;4.87;4.47;;;23.30;99.90;;;;;;4912155;29;20807;-50
2023/08/18 03:22:32;;;;;;;4.77;4.37;;;23.30;99.90;;;;;;4908241;29;20463;-49
2023/08/18 03:25:00;;;;;;;5.03;4.53;;;23.30;99.90;;;;;;4910518;29;20466;-46
2023/08/18 03:27:27;;;;;;;5.03;4.57;;;23.30;99.90;;;;;;4910772;29;20457;-51
2023/08/18 03:29:55;;;;;;;4.37;3.97;;;23.30;99.90;;;;;;4909275;29;20478;-47
2023/08/18 03:32:22;;;;;;;4.10;3.80;;;23.30;99.90;;;;;;4907259;29;20558;-47
2023/08/18 03:34:48;;;;;;;5.97;5.37;;;23.30;99.90;;;;;;4909662;29;20464;-49
2023/08/18 03:37:15;;;;;;;4.87;4.47;;;23.30;99.90;;;;;;4905122;29;20468;-46
2023/08/18 03:39:42;;;;;;;4.90;4.43;;;23.30;99.90;;;;;;4904138;29;21104;-49
2023/08/18 03:42:10;;;;;;;4.77;4.37;;;23.30;99.90;;;;;;4908839;29;20963;-49
2023/08/18 03:44:37;;;;;;;5.47;5.07;;;23.30;99.90;;;;;;4910285;29;20478;-48
2023/08/18 03:47:04;;;;;;;4.37;3.97;;;23.30;99.90;;;;;;4904521;29;20456;-47
2023/08/18 03:49:30;;;;;;;4.13;3.83;;;23.20;99.90;;;;;;4909949;29;20492;-47
2023/08/18 03:51:57;;;;;;;5.27;4.80;;;23.20;99.90;;;;;;4907966;29;20476;-50
2023/08/18 03:54:24;;;;;;;4.53;4.13;;;23.20;99.90;;;;;;4909221;29;20526;-46
2023/08/18 03:56:50;;;;;;;4.00;3.70;;;23.30;99.90;;;;;;4907512;29;20467;-47
2023/08/18 03:59:18;;;;;;;5.33;4.83;;;23.20;99.90;;;;;;4907686;29;20464;-49
2023/08/18 04:01:45;;;;;;;5.73;5.30;;;23.20;99.90;;;;;;4906079;29;20979;-50
2023/08/18 04:04:12;;;;;;;4.23;3.93;;;23.20;99.90;;;;;;4909450;29;20851;-47
2023/08/18 04:06:38;;;;;;;4.77;4.37;;;23.20;99.90;;;;;;4908488;29;20956;-49
2023/08/18 04:09:08;;;;;;;4.67;4.37;;;23.20;99.90;;;;;;4907501;29;20494;-51
2023/08/18 04:11:35;;;;;;;5.10;4.60;;;23.30;99.90;;;;;;4906570;29;20639;-53
2023/08/18 04:14:03;;;;;;;4.33;4.00;;;23.20;99.90;;;;;;4908651;29;20467;-50
2023/08/18 04:16:32;;;;;;;4.17;3.77;;;23.20;99.90;;;;;;4905509;29;20552;-49
2023/08/18 04:18:58;;;;;;;4.73;4.33;;;23.20;99.90;;;;;;4906880;29;20473;-51
2023/08/18 04:21:25;;;;;;;5.30;4.80;;;23.20;99.90;;;;;;4909349;29;20473;-51
2023/08/18 04:23:52;;;;;;;4.40;4.10;;;23.20;99.90;;;;;;4905887;29;21113;-50
2023/08/18 04:26:19;;;;;;;4.93;4.60;;;23.20;99.90;;;;;;4908445;29;20538;-51
2023/08/18 04:28:46;;;;;;;4.23;3.83;;;23.20;99.90;;;;;;4906455;29;20518;-51
2023/08/18 04:31:12;;;;;;;4.70;4.30;;;23.20;99.90;;;;;;4908593;29;21038;-49
2023/08/18 04:33:40;;;;;;;4.70;4.30;;;23.20;99.90;;;;;;4905787;29;20476;-47
2023/08/18 04:36:07;;;;;;;4.57;4.17;;;23.20;99.90;;;;;;4910494;29;20551;-48
2023/08/18 04:38:34;;;;;;;5.20;4.80;;;23.20;99.90;;;;;;4911185;29;20905;-46
2023/08/18 04:41:02;;;;;;;4.73;4.33;;;23.20;99.90;;;;;;4911481;29;20471;-47
2023/08/18 04:43:30;;;;;;;4.93;4.53;;;23.20;99.90;;;;;;4909439;29;20467;-50
2023/08/18 04:45:57;;;;;;;5.03;4.60;;;23.20;99.90;;;;;;4907854;29;20517;-51
2023/08/18 04:48:24;;;;;;;4.50;4.10;;;23.20;99.90;;;;;;4910781;29;20471;-48
2023/08/18 04:50:52;;;;;;;5.63;5.23;;;23.20;99.90;;;;;;4913079;29;20717;-47
2023/08/18 04:53:19;;;;;;;5.40;5.00;;;23.20;99.90;;;;;;4912852;29;20926;-47
2023/08/18 04:55:46;;;;;;;4.70;4.30;;;23.20;99.90;;;;;;4900481;29;20689;-47
2023/08/18 04:58:13;;;;;;;4.50;4.13;;;23.20;99.90;;;;;;4911566;29;20464;-49
2023/08/18 05:00:40;;;;;;;5.07;4.67;;;23.10;99.90;;;;;;4910378;29;20474;-48
2023/08/18 05:03:06;;;;;;;4.70;4.30;;;23.20;99.90;;;;;;4912316;29;20584;-48
2023/08/18 05:05:34;;;;;;;5.10;4.70;;;23.20;99.90;;;;;;4910909;29;20471;-48
2023/08/18 05:08:02;;;;;;;4.57;4.17;;;23.20;99.90;;;;;;4911087;29;20464;-47
2023/08/18 05:10:29;;;;;;;4.70;4.30;;;23.20;99.90;;;;;;4908874;29;20517;-46
2023/08/18 05:12:55;;;;;;;4.60;4.20;;;23.20;99.90;;;;;;4914460;29;20467;-48
2023/08/18 05:15:22;;;;;;;4.00;3.67;;;23.20;99.90;;;;;;4913682;29;20455;-46
2023/08/18 05:17:49;;;;;;;4.60;4.30;;;23.20;99.90;;;;;;4915459;29;20941;-48
2023/08/18 05:20:16;;;;;;;4.50;4.20;;;23.10;99.90;;;;;;4911150;29;21216;-47
2023/08/18 05:22:43;;;;;;;5.87;5.43;;;23.20;99.90;;;;;;4912644;29;20877;-52
2023/08/18 05:25:13;;;;;;;4.97;4.57;;;23.20;99.90;;;;;;4911513;29;20470;-50
2023/08/18 05:27:40;;;;;;;4.70;4.30;;;23.20;99.90;;;;;;4912032;29;20546;-50
2023/08/18 05:30:08;;;;;;;5.10;4.70;;;23.20;99.90;;;;;;4911145;29;20502;-49
2023/08/18 05:32:35;;;;;;;5.70;5.10;;;23.10;99.90;;;;;;4909852;29;20475;-46
2023/08/18 05:35:02;;;;;;;5.13;4.73;;;23.10;99.90;;;;;;4913350;29;21054;-52
2023/08/18 05:37:28;;;;;;;4.50;4.10;;;23.10;99.90;;;;;;4908462;29;20475;-49
2023/08/18 05:39:56;;;;;;;5.37;4.97;;;23.10;99.90;;;;;;4908935;29;20954;-46
2023/08/18 05:42:24;;;;;;;5.40;5.00;;;23.10;99.90;;;;;;4910467;29;20468;-46
2023/08/18 05:44:50;;;;;;;4.43;4.13;;;23.20;99.90;;;;;;4913701;29;20524;-47
2023/08/18 05:47:17;;;;;;;5.30;4.90;;;23.20;99.90;;;;;;4908717;29;20489;-48
2023/08/18 05:49:44;;;;;;;5.10;4.70;;;23.10;99.90;;;;;;4913126;29;20472;-47
2023/08/18 05:52:10;;;;;;;4.23;3.93;;;23.10;99.90;;;;;;4912964;29;20489;-47
2023/08/18 05:54:37;;;;;;;5.20;4.80;;;23.10;99.90;;;;;;4910219;29;20850;-47
2023/08/18 05:57:04;;;;;;;4.63;4.23;;;23.10;99.90;;;;;;4912772;29;22066;-47
2023/08/18 05:59:33;;;;;;;4.80;4.40;;;23.10;99.90;;;;;;4913190;29;20486;-46
2023/08/18 06:02:00;;;;;;;5.30;4.90;;;23.10;99.90;;;;;;4907637;29;20982;-50
2023/08/18 06:04:26;;;;;;;4.80;4.40;;;23.10;99.90;;;;;;4909493;29;20475;-52
2023/08/18 06:06:53;;;;;;;4.70;4.40;;;23.10;99.90;;;;;;4907647;29;20466;-47
2023/08/18 06:09:20;;;;;;;4.87;4.57;;;23.10;99.90;;;;;;4908171;29;20465;-46
2023/08/18 06:11:46;;;;;;;5.20;4.80;;;23.10;99.90;;;;;;4904442;29;20561;-45
2023/08/18 06:14:13;;;;;;;5.03;4.63;;;23.10;99.90;;;;;;4909050;29;20460;-46
2023/08/18 06:16:41;;;;;;;5.00;4.60;;;23.10;99.90;;;;;;4906051;29;20503;-49
2023/08/18 06:19:08;;;;;;;4.83;4.43;;;23.10;99.90;;;;;;4906623;29;20887;-48
2023/08/18 06:21:35;;;;;;;5.07;4.60;;;23.10;99.90;;;;;;4907121;29;20498;-47
2023/08/18 06:24:02;;;;;;;4.30;4.00;;;23.10;99.90;;;;;;4908415;29;20479;-47
2023/08/18 06:26:29;;;;;;;5.10;4.70;;;23.10;99.90;;;;;;4907822;29;20491;-47
2023/08/18 06:28:56;;;;;;;4.67;4.27;;;23.10;99.90;;;;;;4907919;29;20466;-47
2023/08/18 06:31:22;;;;;;;5.10;4.67;;;23.10;99.90;;;;;;4906855;29;20481;-47
2023/08/18 06:33:50;;;;;;;4.27;3.97;;;23.10;99.90;;;;;;4910592;29;20495;-46
2023/08/18 06:36:17;;;;;;;4.83;4.43;;;23.10;99.90;;;;;;4910778;29;20459;-50
2023/08/18 06:38:44;;;;;;;4.77;4.37;;;23.10;99.90;;;;;;4907237;29;20506;-47
2023/08/18 06:41:10;;;;;;;4.67;4.30;;;23.10;99.90;;;;;;4905454;29;20754;-51
2023/08/18 06:43:37;;;;;;;5.40;4.90;;;23.10;99.90;;;;;;4911020;29;21128;-47
2023/08/18 06:46:05;;;;;;;5.00;4.60;;;23.10;99.90;;;;;;4909212;29;20463;-46
2023/08/18 06:48:32;;;;;;;4.40;3.97;;;23.10;99.90;;;;;;4909728;29;20995;-46
2023/08/18 06:51:00;;;;;;;4.50;4.10;;;23.10;99.90;;;;;;4910076;29;20497;-49
2023/08/18 06:53:27;;;;;;;4.67;4.30;;;23.10;99.90;;;;;;4905763;29;20462;-49
2023/08/18 06:55:56;;;;;;;4.30;3.90;;;23.10;99.90;;;;;;4904897;29;20952;-47
2023/08/18 06:58:23;;;;;;;4.93;4.53;;;23.10;99.90;;;;;;4908061;29;20553;-46
2023/08/18 07:00:49;;;;;;;4.90;4.50;;;23.10;99.90;;;;;;4904911;29;20478;-47
2023/08/18 07:03:16;;;;;;;4.47;4.17;;;23.10;99.90;;;;;;4906997;29;20458;-47
2023/08/18 07:05:43;;;;;;;5.07;4.67;;;23.10;99.90;;;;;;4907164;29;20463;-47
2023/08/18 07:08:11;;;;;;;4.60;4.20;;;23.10;99.90;;;;;;4906507;29;20506;-47
2023/08/18 07:10:38;;;;;;;4.60;4.30;;;23.10;99.90;;;;;;4907493;29;20476;-48
2023/08/18 07:13:04;;;;;;;4.57;4.17;;;23.10;99.90;;;;;;4906021;29;20465;-48
2023/08/18 07:15:32;;;;;;;5.00;4.40;;;23.10;99.90;;;;;;4903073;29;21311;-49
2023/08/18 07:17:59;;;;;;;4.90;4.50;;;23.10;99.90;;;;;;4907326;29;20472;-46
2023/08/18 07:20:25;;;;;;;4.70;4.30;;;23.10;99.90;;;;;;4908114;29;20486;-47
2023/08/18 07:22:53;;;;;;;4.07;3.73;;;23.10;99.90;;;;;;4908098;29;20469;-46
2023/08/18 07:25:22;;;;;;;5.40;4.80;;;23.10;99.90;;;;;;4908614;29;20929;-47
2023/08/18 07:27:49;;;;;;;4.40;4.00;;;23.10;99.90;;;;;;4909568;29;20463;-46
2023/08/18 07:30:16;;;;;;;5.00;4.60;;;23.10;99.90;;;;;;4910312;29;20465;-49
2023/08/18 07:32:42;;;;;;;4.70;4.30;;;23.10;99.90;;;;;;4909820;29;20576;-46
2023/08/18 07:35:10;;;;;;;5.03;4.53;;;23.10;99.90;;;;;;4911836;29;20466;-47
2023/08/18 07:37:36;;;;;;;5.03;4.63;;;23.00;99.90;;;;;;4912180;29;20476;-46
2023/08/18 07:40:05;;;;;;;4.23;3.93;;;23.10;99.90;;;;;;4909896;29;20479;-46
2023/08/18 07:42:33;;;;;;;4.20;3.90;;;23.10;99.90;;;;;;4906868;29;20991;-46
2023/08/18 07:45:00;;;;;;;5.00;4.60;;;23.00;99.90;;;;;;4910539;29;20464;-48
2023/08/18 07:47:27;;;;;;;4.10;3.80;;;23.00;99.90;;;;;;4907443;29;20464;-48
2023/08/18 07:49:54;;;;;;;4.20;3.80;;;23.10;99.90;;;;;;4908358;29;20468;-48
2023/08/18 07:52:20;;;;;;;5.23;4.80;;;23.00;99.90;;;;;;4913318;29;20488;-49
2023/08/18 07:54:47;;;;;;;4.37;4.07;;;23.00;99.90;;;;;;4910776;29;21497;-48
2023/08/18 07:57:14;;;;;;;4.60;4.20;;;23.10;99.90;;;;;;4910392;29;20486;-46
2023/08/18 07:59:42;;;;;;;5.10;4.70;;;23.10;99.90;;;;;;4907567;29;20464;-46
2023/08/18 08:02:08;;;;;;;4.20;3.90;;;23.00;99.90;;;;;;4906023;29;20474;-47
2023/08/18 08:04:35;;;;;;;4.90;4.50;;;23.00;99.90;;;;;;4907772;29;20466;-49
2023/08/18 08:07:04;;;;;;;4.87;4.47;;;23.00;99.90;;;;;;4907295;29;21022;-46
2023/08/18 08:09:31;;;;;;;5.47;4.47;;;23.10;99.90;;;;;;4912740;29;20843;-48
2023/08/18 08:11:58;;;;;;;4.13;3.73;;;23.10;99.90;;;;;;4914942;29;20896;-46
2023/08/18 08:14:25;;;;;;;4.03;3.63;;;23.10;99.90;;;;;;4911936;29;20488;-49
2023/08/18 08:16:53;;;;;;;4.07;3.77;;;23.00;99.90;;;;;;4908416;29;20474;-49
2023/08/18 08:19:19;;;;;;;4.23;3.83;;;23.00;99.90;;;;;;4913201;29;20522;-47
2023/08/18 08:21:46;;;;;;;4.30;3.90;;;23.00;99.90;;;;;;4907341;29;21101;-47
2023/08/18 08:24:13;;;;;;;4.57;4.20;;;23.00;99.90;;;;;;4906032;29;20877;-49
2023/08/18 08:26:40;;;;;;;5.80;5.30;;;23.00;99.90;;;;;;4909679;29;20478;-47
2023/08/18 08:29:07;;;;;;;5.53;5.03;;;23.00;99.90;;;;;;4909652;29;20456;-46
2023/08/18 08:31:34;;;;;;;5.57;5.07;;;23.00;99.90;;;;;;4907018;29;20475;-45
2023/08/18 08:34:02;;;;;;;6.37;5.87;;;23.00;99.90;;;;;;4909584;29;20917;-46
2023/08/18 08:36:32;;;;;;;6.93;6.33;;;23.00;99.90;;;;;;4910350;29;20467;-46
2023/08/18 08:39:00;;;;;;;6.83;6.23;;;23.00;99.90;;;;;;4911351;29;20878;-49
2023/08/18 08:41:27;;;;;;;6.87;6.37;;;23.00;99.90;;;;;;4907832;29;20503;-49
2023/08/18 08:43:53;;;;;;;8.10;7.40;;;23.00;99.90;;;;;;4910978;29;20470;-47
2023/08/18 08:46:21;;;;;;;7.63;6.93;;;23.00;99.90;;;;;;4905373;29;20460;-48
2023/08/18 08:48:48;;;;;;;8.07;7.23;;;23.00;99.90;;;;;;4907547;29;20471;-50
2023/08/18 08:51:18;;;;;;;7.23;6.53;;;23.00;99.90;;;;;;4911179;29;20471;-48
2023/08/18 08:53:48;;;;;;;7.50;6.90;;;23.00;99.90;;;;;;4908942;29;20466;-49
2023/08/18 08:56:17;;;;;;;7.13;6.53;;;23.00;99.90;;;;;;4912383;29;20554;-48
2023/08/18 08:58:44;;;;;;;7.03;6.50;;;23.00;99.90;;;;;;4912598;29;20474;-48
2023/08/18 09:01:11;;;;;;;7.30;6.60;;;23.00;99.90;;;;;;4908016;29;20463;-46
2023/08/18 09:03:39;;;;;;;7.90;7.20;;;23.00;99.90;;;;;;4908742;29;20469;-48
2023/08/18 09:06:07;;;;;;;6.70;6.10;;;23.00;99.90;;;;;;4913489;29;20810;-47
2023/08/18 09:08:36;;;;;;;7.10;6.47;;;23.00;99.90;;;;;;4916182;29;20468;-47
2023/08/18 09:11:03;;;;;;;7.83;7.13;;;23.00;99.90;;;;;;4914514;29;20486;-50
2023/08/18 09:13:30;;;;;;;8.03;7.10;;;23.00;99.90;;;;;;4914589;29;21024;-49
2023/08/18 09:15:58;;;;;;;7.13;6.53;;;23.00;99.90;;;;;;4913787;29;20467;-48
2023/08/18 09:18:24;;;;;;;8.20;6.80;;;23.00;99.90;;;;;;4916093;29;20534;-48
2023/08/18 09:20:55;;;;;;;7.47;6.77;;;23.00;99.90;;;;;;4907138;29;20467;-48
2023/08/18 09:23:25;;;;;;;8.03;7.23;;;23.00;99.90;;;;;;4909097;29;20550;-47
2023/08/18 09:25:56;;;;;;;7.03;6.47;;;23.00;99.90;;;;;;4910506;29;20472;-49
2023/08/18 09:28:23;;;;;;;7.70;7.10;;;23.00;99.90;;;;;;4907021;29;20472;-50
2023/08/18 09:30:49;;;;;;;8.20;7.50;;;23.00;99.90;;;;;;4906268;29;20495;-46
2023/08/18 09:33:16;;;;;;;8.60;7.80;;;23.00;99.90;;;;;;4906637;29;20492;-50
2023/08/18 09:35:43;;;;;;;8.07;7.40;;;23.00;99.90;;;;;;4908872;29;20472;-51
2023/08/18 09:38:13;;;;;;;8.87;8.17;;;23.00;99.90;;;;;;4909540;29;20468;-46
2023/08/18 09:40:40;;;;;;;7.97;7.30;;;23.00;99.90;;;;;;4908633;29;20960;-48
2023/08/18 09:43:08;;;;;;;8.53;7.83;;;23.00;99.90;;;;;;4906990;29;20797;-45
2023/08/18 09:45:40;;;;;;;9.60;7.57;;;23.00;99.90;;;;;;4905079;29;20953;-49
2023/08/18 09:48:13;;;;;;;8.57;7.77;;;23.00;99.90;;;;;;4905192;29;20467;-49
2023/08/18 09:50:41;;;;;;;8.23;7.63;;;23.10;99.90;;;;;;4907326;29;20559;-47
2023/08/18 09:53:10;;;;;;;6.70;6.10;;;23.10;99.90;;;;;;4908515;29;20497;-52
2023/08/18 09:55:43;;;;;;;6.90;6.30;;;23.00;99.90;;;;;;4907246;29;20468;-50
2023/08/18 09:58:19;;;;;;;7.50;6.73;;;23.00;99.90;;;;;;4908833;29;20459;-52
2023/08/18 10:00:54;;;;;;;6.47;5.97;;;23.00;99.90;;;;;;4906936;29;20471;-50
2023/08/18 10:03:24;;;;;;;7.37;6.67;;;23.00;99.90;;;;;;4911196;29;21167;-53
2023/08/18 10:05:51;;;;;;;7.07;6.57;;;23.00;99.90;;;;;;4910238;29;20820;-49
2023/08/18 10:08:18;;;;;;;6.57;6.10;;;23.00;99.90;;;;;;4909188;29;20471;-49
2023/08/18 10:10:46;;;;;;;7.07;6.47;;;23.10;99.90;;;;;;4908749;29;20542;-49
2023/08/18 10:13:14;;;;;;;7.17;6.57;;;23.00;99.90;;;;;;4909037;29;20994;-48
2023/08/18 10:15:42;;;;;;;6.97;6.43;;;23.00;99.90;;;;;;4909156;29;20466;-47
2023/08/18 10:18:11;;;;;;;6.90;6.30;;;23.00;99.90;;;;;;4910407;29;20541;-47
2023/08/18 10:20:49;;;;;;;7.00;6.50;;;23.00;99.90;;;;;;4906431;29;20466;-49
2023/08/18 10:23:15;;;;;;;7.33;6.73;;;23.00;99.90;;;;;;4905126;29;20477;-47
2023/08/18 10:25:44;;;;;;;7.97;7.37;;;23.00;99.90;;;;;;4906487;29;20460;-50
2023/08/18 10:28:17;;;;;;;6.60;6.10;;;23.10;99.90;;;;;;4905552;29;20464;-48
2023/08/18 10:30:51;;;;;;;6.50;6.10;;;23.10;99.90;;;;;;4905997;29;20963;-47
2023/08/18 10:33:29;;;;;;;7.37;6.70;;;23.00;99.90;;;;;;4906149;29;20946;-51
2023/08/18 10:35:57;;;;;;;7.80;7.20;;;23.00;99.90;;;;;;4906973;29;21404;-47
2023/08/18 10:38:28;;;;;;;6.43;5.93;;;23.10;99.90;;;;;;4908151;29;20487;-47
2023/08/18 10:40:55;;;;;;;6.33;5.83;;;23.10;99.90;;;;;;4908780;29;20685;-47
2023/08/18 10:43:27;;;;;;;7.10;6.60;;;23.10;99.90;;;;;;4909570;29;20471;-46
2023/08/18 10:45:59;;;;;;;7.60;7.10;;;23.10;99.90;;;;;;4907887;29;20464;-48
2023/08/18 10:48:30;;;;;;;6.30;5.80;;;23.10;99.90;;;;;;4907983;29;20549;-48
2023/08/18 10:50:57;;;;;;;7.53;6.40;;;23.10;99.90;;;;;;4903819;29;20812;-51
2023/08/18 10:53:24;;;;;;;7.00;6.30;;;23.10;99.90;;;;;;4903763;29;20706;-48
2023/08/18 10:55:53;;;;;;;7.50;6.70;;;23.10;99.90;;;;;;4902104;29;20856;-56
2023/08/18 10:58:22;;;;;;;7.87;7.27;;;23.10;99.90;;;;;;4906638;29;20796;-56
2023/08/18 11:00:50;;;;;;;8.00;7.40;;;23.10;99.90;;;;;;4903692;29;20479;-55
2023/08/18 11:03:17;;;;;;;7.37;6.87;;;23.10;99.90;;;;;;4909020;29;20988;-56
2023/08/18 11:05:44;;;;;;;6.80;6.20;;;23.10;99.90;;;;;;4906349;29;20482;-55
2023/08/18 11:08:11;;;;;;;7.53;6.93;;;23.10;99.90;;;;;;4908249;29;20470;-50
2023/08/18 11:10:39;;;;;;;6.33;5.93;;;23.10;99.90;;;;;;4906349;29;20963;-49
2023/08/18 11:13:06;;;;;;;8.03;7.30;;;23.10;99.90;;;;;;4908428;29;20570;-52
2023/08/18 11:15:34;;;;;;;8.50;7.60;;;23.10;99.90;;;;;;4905184;29;20471;-47
2023/08/18 11:18:01;;;;;;;7.20;6.70;;;23.20;99.90;;;;;;4907267;29;21206;-48
2023/08/18 11:20:28;;;;;;;7.03;6.47;;;23.20;99.90;;;;;;4903791;29;20466;-48
2023/08/18 11:22:57;;;;;;;7.30;6.70;;;23.20;99.90;;;;;;4907637;29;20971;-51
2023/08/18 11:25:25;;;;;;;7.07;6.47;;;23.20;99.90;;;;;;4907054;29;20463;-47
2023/08/18 11:27:52;;;;;;;9.83;6.67;;;23.20;99.90;;;;;;4907263;29;21148;-53
2023/08/18 11:30:20;;;;;;;7.07;6.57;;;23.30;99.90;;;;;;4906501;29;20552;-49
2023/08/18 11:32:48;;;;;;;6.73;6.20;;;23.30;99.90;;;;;;4906679;29;20483;-52
2023/08/18 11:35:16;;;;;;;6.90;6.30;;;23.30;99.90;;;;;;4906881;29;20569;-51
2023/08/18 11:37:44;;;;;;;7.43;6.27;;;23.30;99.90;;;;;;4904633;29;20491;-50
2023/08/18 11:40:13;;;;;;;7.93;5.77;;;23.30;99.90;;;;;;4902921;29;21145;-51
2023/08/18 11:42:41;;;;;;;7.57;7.00;;;23.40;99.90;;;;;;4904537;29;21293;-48
2023/08/18 11:45:10;;;;;;;6.37;5.87;;;23.40;99.90;;;;;;4909562;29;20467;-44
2023/08/18 11:47:37;;;;;;;6.63;6.17;;;23.40;99.90;;;;;;4911044;29;20546;-53
2023/08/18 11:50:07;;;;;;;6.20;5.80;;;23.40;99.90;;;;;;4913232;29;21080;-57
2023/08/18 11:52:41;;;;;;;6.77;6.27;;;23.50;99.90;;;;;;4909306;29;20500;-53
2023/08/18 11:55:09;;;;;;;6.00;5.60;;;23.50;99.90;;;;;;4910922;29;20971;-47
2023/08/18 11:57:40;;;;;;;5.87;5.47;;;23.50;99.90;;;;;;4909853;29;20552;-57
2023/08/18 12:00:11;;;;;;;6.67;6.10;;;23.50;99.90;;;;;;4910639;29;20824;-50
2023/08/18 12:02:43;;;;;;;6.43;5.93;;;23.50;99.90;;;;;;4911506;29;20820;-54
2023/08/18 12:05:21;;;;;;;6.83;6.33;;;23.50;99.90;;;;;;4912114;29;20471;-53
2023/08/18 12:07:49;;;;;;;7.90;7.20;;;23.60;99.90;;;;;;4912111;29;21604;-50
2023/08/18 12:10:15;;;;;;;6.17;5.70;;;23.60;99.90;;;;;;4911062;29;21035;-52
2023/08/18 12:12:42;;;;;;;6.23;5.73;;;23.60;99.90;;;;;;4911416;29;20489;-49
2023/08/18 12:15:10;;;;;;;7.23;6.60;;;23.60;99.90;;;;;;4904023;29;20470;-48
2023/08/18 12:17:36;;;;;;;6.60;6.00;;;23.70;99.90;;;;;;4904674;29;20479;-47
2023/08/18 12:20:07;;;;;;;7.57;6.97;;;23.60;99.90;;;;;;4910241;29;21091;-48
2023/08/18 12:22:35;;;;;;;7.13;6.63;;;23.70;99.90;;;;;;4906719;29;20466;-52
2023/08/18 12:25:05;;;;;;;7.97;7.27;;;23.70;99.90;;;;;;4908205;29;20469;-49
2023/08/18 12:27:33;;;;;;;7.03;6.40;;;23.70;99.90;;;;;;4910733;29;21259;-51
2023/08/18 12:30:00;;;;;;;6.63;6.13;;;23.70;99.90;;;;;;4912153;29;20493;-49
2023/08/18 12:32:27;;;;;;;7.80;7.10;;;23.80;99.90;;;;;;4907626;29;20474;-47
2023/08/18 12:34:54;;;;;;;7.27;6.57;;;23.80;99.90;;;;;;4912998;29;20467;-52
2023/08/18 12:37:21;;;;;;;6.67;6.13;;;23.80;99.90;;;;;;4913219;29;20462;-50
2023/08/18 12:39:49;;;;;;;6.90;6.40;;;23.80;99.90;;;;;;4908622;29;20853;-49
2023/08/18 12:42:16;;;;;;;7.17;6.67;;;23.80;99.90;;;;;;4909455;29;20978;-53
2023/08/18 12:44:43;;;;;;;6.77;6.27;;;23.80;99.90;;;;;;4907472;29;20962;-49
2023/08/18 12:47:09;;;;;;;7.27;6.77;;;23.90;99.90;;;;;;4906822;29;20474;-46
2023/08/18 12:49:37;;;;;;;7.93;7.30;;;23.90;99.90;;;;;;4906412;29;20476;-50